Latest Weather Observations for Meekatharra

IDW60801

Issued at 12:05 pm WST Monday 20 October 2014 (issued every 30 minutes, with the page automatically refreshed every 10 minutes)

About weather observations | Map of weather stations | Latest weather observations for WA | Other Formats
Station Details ID: 007045 Name: MEEKATHARRA AIRPORT Lat: -26.61 Lon: 118.54 Height: 517.0 m
Data from the previous 72 hours. | See also: Recent months at Meekatharra
Date/Time
WST
Temp
°C
App
Temp
°C
Dew
Point
Rel
Hum
%
Delta-T
°C
Wind Press
QNH
hPa
Press
MSL
hPa
Rain
since 9 am
mm
Dir
 
Spd
km/h
Gust
km/h
Spd
kts
Gust
kts
20/12:00pm 26.4 23.4 3.9 23 11.5 WNW 9 15 5 8 1017.8 1015.5 0.0
20/11:30am 25.3 22.1 5.0 27 10.5 W 11 17 6 9 1017.9 - 0.0
20/11:00am 23.7 20.5 5.0 29 9.6 W 11 22 6 12 1018.2 - 0.0
20/10:30am 23.7 20.5 5.2 30 9.5 WSW 11 20 6 11 1018.4 - 0.0
20/10:00am 22.9 19.9 6.2 34 8.7 SW 11 24 6 13 1018.6 - 0.0
20/09:30am 22.5 20.0 6.7 36 8.3 SSW 9 20 5 11 1018.7 - 0.0
20/09:00am 21.4 18.3 7.4 40 7.4 SSW 13 17 7 9 1018.7 1016.3 0.0
20/08:30am 21.1 17.6 7.2 40 7.3 SSW 15 19 8 10 1018.9 - 0.0
20/08:00am 20.1 17.0 7.3 43 6.7 SW 13 24 7 13 1018.8 - 0.0
20/07:30am 19.1 15.6 7.4 46 6.1 W 15 20 8 11 1018.5 - 0.0
20/07:00am 17.6 15.1 8.0 53 5.0 W 11 15 6 8 1018.4 - 0.0
20/06:30am 15.5 13.5 8.8 64 3.5 W 9 11 5 6 1018.2 - 0.0
20/06:00am 13.2 11.2 8.5 73 2.4 W 9 13 5 7 1017.7 1015.3 0.0
20/05:30am 12.2 10.2 8.7 79 1.8 W 9 9 5 5 1017.3 - 0.0
20/05:00am 12.5 10.5 8.6 77 2.0 W 9 11 5 6 1016.9 - 0.0
20/04:30am 12.7 11.1 8.6 76 2.1 W 7 9 4 5 1016.4 - 0.0
20/04:00am 13.0 11.0 8.5 74 2.3 W 9 9 5 5 1015.8 - 0.0
20/03:30am 13.5 11.9 8.7 73 2.5 W 7 9 4 5 1015.6 - 0.0
20/03:00am 14.1 11.6 8.3 68 3.0 W 11 11 6 6 1015.4 1013.0 0.0
20/02:30am 14.8 12.6 8.0 64 3.5 W 9 11 5 6 1015.3 - 0.0
20/02:00am 15.4 11.9 7.3 58 4.1 W 15 19 8 10 1015.3 - 0.0
20/01:30am 15.9 12.1 6.0 52 4.9 WNW 15 20 8 11 1015.4 - 0.0
20/01:00am 17.2 13.1 4.2 42 6.3 WNW 15 17 8 9 1015.3 - 0.0
20/12:30am 16.9 14.4 6.6 50 5.2 WNW 9 11 5 6 1015.3 - 0.0
20/12:00am 17.4 14.8 6.3 48 5.6 WNW 9 11 5 6 1015.5 1013.1 0.0
 
Date/Time
WST
Temp
°C
App
Temp
°C
Dew
Point
Rel
Hum
%
Delta-T
°C
Wind Press
QNH
hPa
Press
MSL
hPa
Rain
since 9 am
mm
Dir
 
Spd
km/h
Gust
km/h
Spd
kts
Gust
kts
19/11:30pm 18.0 15.4 5.9 45 6.1 WNW 9 11 5 6 1015.5 - 0.0
19/11:00pm 18.9 16.0 4.8 39 7.0 WNW 9 13 5 7 1015.6 - 0.0
19/10:30pm 19.1 16.2 4.8 39 7.1 WNW 9 11 5 6 1015.6 - 0.0
19/10:00pm 19.5 16.6 4.5 37 7.4 NW 9 13 5 7 1015.6 - 0.0
19/09:30pm 19.7 16.8 4.9 37 7.4 WNW 9 11 5 6 1015.6 - 0.0
19/09:00pm 20.1 17.5 4.0 34 7.9 WNW 7 9 4 5 1015.6 1013.2 0.0
19/08:30pm 21.2 17.8 1.9 28 9.2 WNW 9 13 5 7 1015.4 - 0.0
19/08:00pm 21.8 17.4 0.6 24 9.9 NW 13 17 7 9 1015.1 - 0.0
19/07:30pm 22.4 18.1 0.7 23 10.2 WNW 13 17 7 9 1014.9 - 0.0
19/07:00pm 22.9 18.3 -1.0 20 10.9 WNW 13 19 7 10 1014.5 - 0.0
19/06:30pm 23.5 18.8 0.7 22 10.8 WNW 15 22 8 12 1014.1 - 0.0
19/06:00pm 24.1 18.2 -0.7 19 11.5 WNW 20 32 11 17 1013.8 1011.4 0.0
19/05:30pm 24.6 19.0 0.0 19 11.6 NW 19 37 10 20 1013.4 - 0.0
19/05:00pm 24.6 18.3 -0.8 18 11.8 NW 22 33 12 18 1013.2 - 0.0
19/04:30pm 24.5 17.0 -1.5 18 11.9 NW 28 39 15 21 1013.1 - 0.0
19/04:00pm 25.7 17.6 -2.9 15 12.9 NNW 30 50 16 27 1012.9 - 0.0
19/03:37pm 25.4 18.0 -1.0 17 12.3 NNW 28 48 15 26 1012.7 - 0.0
19/03:30pm 25.0 17.0 0.1 19 11.8 NNW 32 48 17 26 1012.8 - 0.0
19/03:23pm 25.6 18.2 -0.6 18 12.3 NNW 28 48 15 26 1012.7 - 0.0
19/03:00pm 25.3 18.4 0.4 19 11.9 NW 26 39 14 21 1012.6 1010.1 0.0
19/02:30pm 25.6 19.3 1.4 20 11.8 NW 24 44 13 24 1012.7 - 0.0
19/02:00pm 24.6 19.2 2.5 23 10.9 WNW 20 30 11 16 1012.9 - 0.0
19/01:37pm 25.4 18.5 2.4 22 11.4 NNW 28 48 15 26 1012.9 - 0.0
19/01:30pm 25.1 18.2 2.8 23 11.1 NNW 28 44 15 24 1013.1 - 0.0
19/01:00pm 24.9 17.0 2.1 22 11.2 NNW 33 46 18 25 1013.4 - 0.0
19/12:49pm 24.6 17.5 3.5 25 10.6 NW 30 48 16 26 1013.5 - 0.0
19/12:30pm 24.9 17.2 2.4 23 11.1 NNW 32 44 17 24 1013.7 - 0.0
19/12:00pm 24.1 18.4 5.1 29 9.8 WNW 24 39 13 21 1014.2 1011.7 0.0
19/11:30am 23.0 17.6 6.4 34 8.7 WNW 24 33 13 18 1014.5 - 0.0
19/11:00am 22.7 18.3 7.5 37 8.1 WNW 20 30 11 16 1014.7 - 0.0
19/10:30am 22.8 19.3 8.9 41 7.6 NW 17 28 9 15 1015.1 - 0.0
19/10:00am 22.2 18.6 9.8 45 6.9 NNW 19 30 10 16 1015.1 - 0.0
19/09:30am 20.7 17.1 10.7 52 5.6 NW 20 26 11 14 1015.2 - 0.0
19/09:00am 20.6 18.1 11.2 55 5.3 WNW 15 22 8 12 1015.1 1012.7 1.4
19/08:30am 19.4 17.4 11.4 60 4.5 W 13 17 7 9 1015.1 - 1.4
19/08:00am 19.0 16.9 11.3 61 4.3 W 13 19 7 10 1015.1 - 1.4
19/07:30am 18.1 17.6 10.7 62 4.1 SW 4 7 2 4 1014.6 - 1.4
19/07:00am 16.6 16.0 11.6 72 2.8 SW 6 9 3 5 1014.3 - 1.4
19/06:30am 16.3 14.9 11.0 71 2.9 SW 9 11 5 6 1013.7 - 1.4
19/06:00am 16.1 14.9 11.6 74 2.5 SW 9 13 5 7 1013.2 1010.8 1.4
19/05:30am 16.1 14.1 11.6 74 2.5 SW 13 17 7 9 1012.9 - 1.4
19/05:00am 16.2 14.6 11.5 73 2.6 SW 11 13 6 7 1013.1 - 1.4
19/04:30am 16.7 13.8 10.9 68 3.2 SW 17 24 9 13 1012.8 - 1.4
19/04:00am 17.1 13.7 11.1 68 3.3 WSW 20 26 11 14 1012.5 - 1.4
19/03:30am 17.1 16.6 12.7 75 2.5 NW 7 11 4 6 1012.0 - 1.4
19/03:00am 16.8 18.1 14.2 85 1.5 CALM 0 0 0 0 1011.8 1009.4 1.4
19/02:30am 17.1 16.9 13.7 80 2.0 NW 7 9 4 5 1011.8 - 1.4
19/02:00am 18.0 17.2 13.0 72 2.9 NW 9 11 5 6 1012.0 - 1.4
19/01:30am 18.4 17.1 12.6 69 3.3 NW 11 15 6 8 1012.5 - 1.4
19/01:00am 18.4 17.1 12.4 68 3.4 WNW 11 17 6 9 1012.6 - 1.4
19/12:30am 18.5 16.1 12.6 68 3.4 NW 17 24 9 13 1012.8 - 1.4
19/12:00am 18.8 16.4 12.7 67 3.5 N 17 20 9 11 1012.7 1010.3 1.4
 
Date/Time
WST
Temp
°C
App
Temp
°C
Dew
Point
Rel
Hum
%
Delta-T
°C
Wind Press
QNH
hPa
Press
MSL
hPa
Rain
since 9 am
mm
Dir
 
Spd
km/h
Gust
km/h
Spd
kts
Gust
kts
18/11:30pm 19.0 17.7 12.6 66 3.7 WNW 11 17 6 9 1012.6 - 1.4
18/11:00pm 19.3 17.6 12.5 64 3.9 N 13 19 7 10 1013.0 - 1.4
18/10:30pm 19.7 18.8 13.6 68 3.6 N 11 19 6 10 1013.4 - 1.4
18/10:00pm 19.7 18.8 14.9 74 2.9 N 13 17 7 9 1013.5 - 1.4
18/09:30pm 19.8 19.6 14.8 73 3.0 N 9 13 5 7 1013.5 - 1.4
18/09:00pm 20.0 18.9 15.2 74 2.9 N 15 20 8 11 1013.6 1011.2 1.2
18/08:30pm 21.1 20.3 15.0 68 3.7 N 13 20 7 11 1013.5 - 0.8
18/08:00pm 21.3 20.8 15.0 67 3.8 NNW 11 13 6 7 1013.1 - 0.8
18/07:30pm 21.4 21.1 15.5 69 3.6 NNW 11 13 6 7 1012.8 - 0.8
18/07:00pm 21.8 21.7 14.9 65 4.2 NNW 9 13 5 7 1012.6 - 0.8
18/06:30pm 21.7 21.3 15.1 66 4.0 NW 11 13 6 7 1012.1 - 0.8
18/06:00pm 21.2 21.5 15.1 68 3.7 NW 7 11 4 6 1011.8 1009.4 0.8
18/05:30pm 21.5 19.8 13.7 61 4.6 NNW 15 19 8 10 1011.6 - 0.8
18/05:07pm 20.9 19.5 14.4 66 3.9 NNW 15 20 8 11 1012.3 - 0.8
18/05:00pm 20.8 18.4 14.3 66 3.9 NNW 20 30 11 16 1012.2 - 0.8
18/04:49pm 20.7 16.6 13.8 64 4.1 NW 28 39 15 21 1012.7 - 0.6
18/04:30pm 24.3 21.9 12.8 48 6.8 WNW 17 26 9 14 1012.0 - 0.2
18/04:00pm 25.0 23.2 13.3 48 7.0 WNW 15 22 8 12 1011.6 - 0.2
18/03:30pm 25.0 22.4 13.3 48 7.0 WNW 19 26 10 14 1011.8 - 0.2
18/03:00pm 24.9 21.9 13.6 49 6.8 NW 22 32 12 17 1011.8 1009.4 0.2
18/02:30pm 23.9 21.1 13.3 51 6.3 N 20 28 11 15 1012.5 - 0.2
18/02:00pm 24.8 21.9 13.0 47 7.0 NNW 20 30 11 16 1012.8 - 0.2
18/01:30pm 24.3 22.5 13.2 50 6.6 NNW 15 24 8 13 1012.7 - 0.2
18/01:00pm 23.3 21.0 14.7 58 5.2 N 20 28 11 15 1013.4 - 0.2
18/12:30pm 23.0 21.7 15.7 63 4.5 N 17 26 9 14 1013.6 - 0.2
18/12:00pm 24.0 21.3 12.8 49 6.6 N 19 24 10 13 1013.9 1011.5 0.2
18/11:30am 23.4 20.7 13.5 53 5.9 NNW 20 30 11 16 1014.4 - 0.2
18/11:00am 23.7 21.5 14.4 56 5.6 NNW 19 26 10 14 1014.4 - 0.2
18/10:30am 23.5 20.3 11.9 48 6.7 NW 20 28 11 15 1014.5 - 0.2
18/10:00am 23.2 20.7 13.6 54 5.7 NW 19 28 10 15 1014.6 - 0.2
18/09:30am 23.3 21.4 15.3 60 4.9 NNW 19 26 10 14 1014.4 - 0.2
18/09:00am 23.0 21.4 16.6 67 4.0 NNW 20 28 11 15 1014.6 1012.2 10.6
18/08:30am 22.0 20.5 16.2 69 3.6 N 19 24 10 13 1014.5 - 10.6
18/08:00am 20.7 19.2 16.3 76 2.7 N 19 24 10 13 1014.3 - 10.6
18/07:30am 19.8 18.5 15.9 78 2.4 N 17 24 9 13 1014.3 - 10.6
18/07:00am 19.4 19.0 16.1 81 2.0 N 13 17 7 9 1013.9 - 10.6
18/06:30am 18.6 18.5 16.0 85 1.6 N 11 15 6 8 1013.8 - 10.6
18/06:00am 18.1 18.4 16.0 87 1.3 N 9 11 5 6 1013.7 1011.3 10.6
18/05:30am 18.0 17.5 15.9 87 1.3 N 13 15 7 8 1013.5 - 10.6
18/05:00am 18.3 17.0 15.7 85 1.6 NW 17 20 9 11 1013.2 - 10.6
18/04:30am 18.3 17.0 15.7 85 1.6 NNE 17 22 9 12 1012.9 - 10.6
18/04:00am 18.3 16.6 15.7 85 1.6 NNE 19 26 10 14 1012.8 - 10.6
18/03:30am 18.3 16.4 15.7 85 1.6 NNE 20 28 11 15 1012.8 - 10.6
18/03:00am 18.2 16.3 15.7 85 1.5 NNE 20 30 11 16 1012.8 1010.4 10.6
18/02:30am 18.3 15.9 15.5 84 1.7 NNE 22 35 12 19 1013.2 - 10.6
18/02:00am 18.3 15.5 15.3 83 1.8 NNE 24 37 13 20 1013.1 - 10.6
18/01:30am 18.3 14.7 15.3 83 1.8 NNE 28 46 15 25 1013.1 - 10.6
18/01:29am 18.3 14.7 15.3 83 1.8 NNE 28 46 15 25 1013.1 - 10.6
18/01:00am 18.2 15.4 15.4 84 1.7 NNE 24 35 13 19 1013.5 - 10.6
18/12:30am 18.2 13.8 15.2 82 1.8 NNE 32 43 17 23 1013.7 - 10.6
18/12:00am 17.9 14.7 15.2 84 1.6 NE 26 43 14 23 1013.8 1011.4 10.6
 
Date/Time
WST
Temp
°C
App
Temp
°C
Dew
Point
Rel
Hum
%
Delta-T
°C
Wind Press
QNH
hPa
Press
MSL
hPa
Rain
since 9 am
mm
Dir
 
Spd
km/h
Gust
km/h
Spd
kts
Gust
kts
17/11:36pm 18.0 14.4 15.2 84 1.7 NE 28 46 15 25 1013.9 - 10.6
17/11:30pm 18.0 14.0 15.2 84 1.7 NE 30 43 16 23 1014.1 - 10.6
17/11:00pm 17.9 15.0 15.2 84 1.6 NNE 24 39 13 21 1014.4 - 10.6
17/10:41pm 17.8 15.4 15.3 85 1.5 NE 22 33 12 18 1014.6 - 10.6
17/10:30pm 17.8 15.7 15.3 85 1.5 NE 20 30 11 16 1014.8 - 10.6
17/10:27pm 17.9 15.4 15.2 84 1.6 NE 22 30 12 16 1014.7 - 10.6
17/10:22pm 18.5 14.4 15.0 80 2.1 N 30 46 16 25 1014.9 - 10.6
17/10:18pm 19.0 15.9 14.4 74 2.7 NNE 24 41 13 22 1016.9 - 10.0
17/10:00pm 18.6 15.2 14.7 78 2.3 NE 26 39 14 21 1014.9 - 10.0
17/09:30pm 18.2 15.4 15.4 84 1.7 NE 24 37 13 20 1014.9 - 10.0
17/09:00pm 18.5 16.4 15.3 81 1.9 NNE 20 30 11 16 1014.9 1012.5 9.6
17/08:30pm 18.2 16.3 15.7 85 1.5 NE 20 28 11 15 1014.4 - 9.4
17/08:00pm 17.8 15.8 15.6 87 1.3 NE 20 28 11 15 1014.3 - 9.4
17/07:30pm 18.1 14.5 15.3 84 1.7 NE 28 43 15 23 1014.8 - 9.2
17/07:00pm 18.5 15.2 15.0 80 2.1 NE 26 37 14 20 1014.1 - 9.2
17/06:30pm 18.6 18.6 15.1 80 2.1 WNW 9 19 5 10 1012.8 - 9.2
17/06:00pm 18.6 16.5 13.6 72 2.9 W 17 24 9 13 1012.5 1010.0 9.2
17/05:55pm 18.2 16.3 14.1 77 2.4 W 17 32 9 17 1013.1 - 9.2
17/05:30pm 17.6 14.1 14.5 82 1.8 W 26 43 14 23 1015.1 - 8.4
17/05:20pm 17.9 14.0 14.3 79 2.1 W 28 37 15 20 1015.5 - 8.2
17/05:00pm 17.8 10.9 15.5 86 1.4 WNW 46 70 25 38 1016.7 - 7.6
17/04:52pm 18.3 11.0 15.5 84 1.7 WNW 48 70 26 38 1015.9 - 6.8
17/04:51pm 18.9 11.8 15.1 78 2.3 WNW 46 67 25 36 1016.1 - 6.6
17/04:46pm 22.0 9.5 12.1 53 5.7 NW 69 87 37 47 1015.1 - 6.4
17/04:45pm 21.3 14.5 13.1 59 4.8 NNW 41 87 22 47 1014.7 - 6.4
17/04:44pm 19.8 16.1 15.1 74 2.8 NNW 28 39 15 21 1014.2 - 6.4
17/04:42pm 19.7 19.8 15.4 76 2.6 E 9 20 5 11 1013.0 - 6.4
17/04:30pm 19.8 19.4 14.1 69 3.4 E 9 15 5 8 1010.9 - 6.4
17/04:10pm 18.3 13.7 15.0 81 2.0 ENE 33 43 18 23 1010.9 - 6.4
17/04:00pm 17.9 14.0 15.6 86 1.4 ENE 30 37 16 20 1012.9 - 6.2
17/03:31pm 17.9 13.9 15.1 84 1.7 NNE 30 43 16 23 1013.3 - 5.0
17/03:30pm 17.9 13.9 15.1 84 1.7 NNE 30 43 16 23 1013.5 - 5.0
17/03:13pm 17.9 12.0 14.7 81 1.9 N 39 57 21 31 1013.8 - 4.2
17/03:09pm 18.0 12.8 14.4 79 2.1 N 35 52 19 28 1013.8 - 4.0
17/03:00pm 18.0 13.3 14.4 79 2.1 N 32 50 17 27 1013.7 1011.3 3.8
17/02:56pm 18.0 13.3 14.4 79 2.1 NNE 32 50 17 27 1014.2 - 3.6
17/02:48pm 17.7 13.4 14.5 81 1.9 N 30 39 16 21 1014.5 - 3.4
17/02:32pm 20.6 14.8 13.8 65 4.0 N 37 57 20 31 1015.3 - 3.2
17/02:30pm 21.3 15.8 12.3 56 5.2 N 33 48 18 26 1014.9 - 3.2
17/02:27pm 20.6 17.3 14.0 66 3.9 NW 24 39 13 21 1015.1 - 2.2
17/02:21pm 20.0 14.6 15.0 73 3.0 W 37 48 20 26 1015.2 - 1.4
17/02:20pm 20.4 14.5 14.7 70 3.4 W 39 48 21 26 1015.2 - 1.4
17/02:00pm 22.7 21.0 13.6 56 5.4 S 15 20 8 11 1013.6 - 1.0
17/01:30pm 22.9 20.9 14.0 57 5.3 SSE 17 20 9 11 1014.8 - 0.8
17/01:17pm 22.5 21.1 14.5 60 4.8 E 15 20 8 11 1014.6 - 0.8
17/01:02pm 21.5 18.9 16.0 71 3.4 ESE 24 28 13 15 1014.6 - 0.8
17/01:00pm 22.0 19.4 16.0 68 3.7 ESE 24 28 13 15 1014.6 - 0.4
17/12:30pm 26.4 23.6 8.5 32 9.9 SE 13 20 7 11 1015.9 - 0.0

Other Formats:

Comma delimited format used in spreadsheet applications
http://www.bom.gov.au/fwo/IDW60801/IDW60801.94430.axf

JavaScript Object Notation format (JSON) in row-major order
http://www.bom.gov.au/fwo/IDW60801/IDW60801.94430.json